Terminal Aerodrome Forecast
Issued by NWS Wilmington, OH

Home | Current Version | Previous Version | Text Only | Print | Product List | Glossary On
Versions: 1 2 3 4 5 6 7 8 9 10 11 12 13 14 15
000
FTUS41 KILN 251100
TAFDAY
TAF
KDAY 251136Z 2512/2612 19016G24KT P6SM VCSH BKN090
     FM251300 21021G30KT P6SM VCSH SCT040 BKN080
     FM251700 22013G21KT P6SM VCSH BKN040
     FM260000 20009KT P6SM BKN080
     FM260800 19008KT P6SM BKN040=

USA.gov is the U.S. government's official web portal to all federal, state and local government web resources and services.